Houghton County Memorial, MI

6:12 AM EST on February 01, 2015 (GMT -0500)
Houghton County Memorial | Change Station
CLOSE
Current Station
Airport
Location: Houghton,
Elevation: 1079 ft
Nearby Weather Stations

Elev 1079 ft 47.17 °N, 88.49 °W | Updated 19 minutes ago

Scattered Clouds
Scattered Clouds
2 °F
Feels Like -12 °F
N
8
Wind Variable Wind from NNE

Today
High -- | Low -- °F
--% Chance of Precip.
Yesterday
High -- | Low -- °F
Precip. -- in
8:19 AM 5:56 PM
Waxing Gibbous, 94% visible
Pressure 30.44 in
Visibility 9.0 miles
Clouds Scattered Clouds 2900 ft
Windchill -12 °F
Dew Point -3 °F
Humidity 80%
Rainfall 0.00 in
Snow Depth Not available.
UV 0 out of 12
Pollen .10 out of 12
Air Quality Not available.
Flu Activity Not available.
METAR KCMX 011053Z AUTO 03007KT 9SM SCT029 M17/M19 A3035 RMK AO2 SLP306 T11671194

More Conditions Fewer Conditions

Pressure 30.44 in
Visibility 9.0 miles
Clouds Scattered Clouds 2900 ft
Windchill -12 °F
Dew Point -3 °F
Humidity 80%
Rainfall 0.00 in
Snow Depth Not available.
UV 0 out of 12
Pollen .10 out of 12
Air Quality Not available.
Flu Activity Not available.
METAR KCMX 011053Z AUTO 03007KT 9SM SCT029 M17/M19 A3035 RMK AO2 SLP306 T11671194

More Conditions Fewer Conditions

10-Day Weather Forecast

Almanac

Astronomy

Feb. 01, 2015 Rise Set
Actual Time
Civil Twilight
Nautical Twilight
Astronomical Twilight
Moon
Length of Visible Light
Length of Day
Tomorrow will be .
, % of the Moon is Illuminated

Today's Extremes

State Highs State Lows

Community

WunderPhotos

Upload Photos

1,792,345 photos uploaded!

WunderBlogs® & News

Nearby

Air Quality

  Air Quality AQ Index Pollutant
Not available.

Snow Depth

Station Depth Elevation

Earthquake Activity

City Distance Mag. Time & Date
Minimum magnitude displayed is 2.5.

Coastal Water Temperatures

Place Temperature

Nearby Weather Stations